createdAt,value
2023-03-22T00:01:24.210Z,101565.84
2023-03-22T00:03:54.238Z,101633.47
2023-03-22T00:06:23.491Z,101493.59
2023-03-22T00:08:53.634Z,101631.31
2023-03-22T00:11:24.674Z,101404.84
2023-03-22T00:13:54.257Z,101605.81
2023-03-22T00:16:25.188Z,101462.59
2023-03-22T00:18:54.542Z,101551.78
2023-03-22T00:21:23.719Z,101536.56
2023-03-22T00:23:52.928Z,101595.31
2023-03-22T00:26:22.100Z,101621.16
2023-03-22T00:28:52.307Z,101603.59
2023-03-22T00:31:21.665Z,101428.72
2023-03-22T00:33:52.345Z,101564.78
2023-03-22T00:36:21.563Z,101372.88
2023-03-22T00:38:50.839Z,101593.84
2023-03-22T00:41:22.465Z,101534.47
2023-03-22T00:43:52.917Z,101447.13
2023-03-22T00:46:23.292Z,101468.75
2023-03-22T00:48:54.112Z,101511.91
2023-03-22T00:51:23.349Z,101592.97
2023-03-22T00:53:54.424Z,101542.78
2023-03-22T00:56:25.902Z,101584.13
2023-03-22T00:58:55.137Z,101601.66
2023-03-22T01:01:24.303Z,101400.59
2023-03-22T01:03:55.066Z,101440.13
2023-03-22T01:06:24.429Z,101520.28
2023-03-22T01:08:55.572Z,101296.56
2023-03-22T01:11:25.061Z,101439.47
2023-03-22T01:13:55.228Z,101551.22
2023-03-22T01:16:24.457Z,101509.63
2023-03-22T01:18:55.171Z,101606.97
2023-03-22T01:21:24.370Z,101423.28
2023-03-22T01:23:53.520Z,101598.94
2023-03-22T01:26:22.806Z,101573.66
2023-03-22T01:28:52.051Z,101521.81
2023-03-22T01:31:21.402Z,101474.63
2023-03-22T01:33:50.687Z,101574.94
2023-03-22T01:36:21.383Z,101515.13
2023-03-22T01:38:52.081Z,101519.38
2023-03-22T01:41:21.366Z,101577.25
2023-03-22T01:44:13.082Z,101402.75
2023-03-22T01:46:42.839Z,101425.47
2023-03-22T01:49:16.719Z,101424.75
2023-03-22T01:51:50.401Z,101557.28
2023-03-22T01:54:26.731Z,101488.00
2023-03-22T01:56:56.249Z,101604.56
2023-03-22T01:59:26.843Z,101415.97
2023-03-22T02:01:56.375Z,101381.56
2023-03-22T02:04:34.676Z,101429.38
2023-03-22T02:07:10.448Z,101528.44
2023-03-22T02:09:42.733Z,101597.41
2023-03-22T02:12:23.576Z,101512.50
2023-03-22T02:15:05.733Z,101596.28
2023-03-22T02:17:45.472Z,101593.56
2023-03-22T02:20:48.388Z,101599.53
2023-03-22T02:24:01.400Z,101467.88
2023-03-22T02:27:09.621Z,101608.09
2023-03-22T02:29:45.544Z,101541.22
2023-03-22T02:32:56.650Z,101445.66
2023-03-22T02:35:48.524Z,101538.31
2023-03-22T02:38:31.245Z,101508.06
2023-03-22T02:41:08.557Z,101609.44
2023-03-22T02:43:46.627Z,101626.44
2023-03-22T02:46:22.237Z,101458.25
2023-03-22T02:49:00.341Z,101440.41
2023-03-22T02:51:36.230Z,101602.94
2023-03-22T02:54:06.021Z,101608.69
2023-03-22T02:56:50.862Z,101417.75
2023-03-22T02:59:24.829Z,101526.59
2023-03-22T03:01:57.974Z,101597.91
2023-03-22T03:04:32.872Z,101590.00
2023-03-22T03:07:06.244Z,101576.59
2023-03-22T03:09:35.723Z,101561.97
2023-03-22T03:12:11.731Z,101601.50
2023-03-22T03:14:42.655Z,101583.50
2023-03-22T03:17:25.748Z,101550.09
2023-03-22T03:20:08.723Z,101605.09
2023-03-22T03:22:49.853Z,101613.38
2023-03-22T03:25:27.535Z,101612.94
2023-03-22T03:28:05.899Z,101601.84
2023-03-22T03:30:41.214Z,101583.66
2023-03-22T03:33:14.218Z,101587.75
2023-03-22T03:35:52.294Z,101598.72
2023-03-22T03:38:27.101Z,101555.31
2023-03-22T03:41:00.955Z,101555.69
2023-03-22T03:43:31.942Z,101605.50
2023-03-22T03:46:02.184Z,101605.41
2023-03-22T03:48:34.120Z,101582.16
2023-03-22T03:51:04.342Z,101615.06
2023-03-22T03:53:33.775Z,101606.09
2023-03-22T03:56:02.977Z,101550.31
2023-03-22T03:58:33.648Z,101585.09
2023-03-22T04:01:04.427Z,101593.53
2023-03-22T04:03:35.006Z,101595.72
2023-03-22T04:06:04.771Z,101581.19
2023-03-22T04:08:33.953Z,101548.19
2023-03-22T04:11:03.055Z,101587.28
2023-03-22T04:13:33.786Z,101597.31
2023-03-22T04:16:03.644Z,101577.53
2023-03-22T04:18:32.735Z,101578.19
2023-03-22T04:21:01.963Z,101594.41
2023-03-22T04:23:33.551Z,101585.41
2023-03-22T04:26:02.747Z,101586.50
2023-03-22T04:28:34.363Z,101585.88
2023-03-22T04:31:04.395Z,101565.09
2023-03-22T04:33:39.755Z,101583.13
2023-03-22T04:36:10.756Z,101581.78
2023-03-22T04:38:40.779Z,101579.59
2023-03-22T04:41:09.921Z,101582.66
2023-03-22T04:43:40.580Z,101580.47
2023-03-22T04:46:12.146Z,101572.84
2023-03-22T04:48:43.007Z,101537.34
2023-03-22T04:51:13.800Z,101578.16
2023-03-22T04:53:42.967Z,101578.31
2023-03-22T04:56:14.904Z,101580.19
2023-03-22T04:58:46.968Z,101569.91
2023-03-22T05:01:18.274Z,101576.56
2023-03-22T05:03:48.987Z,101572.38
2023-03-22T05:06:18.415Z,101557.91
2023-03-22T05:08:48.629Z,101553.53
2023-03-22T05:11:19.843Z,101540.75
2023-03-22T05:13:50.430Z,101572.84
2023-03-22T05:16:19.621Z,101566.06
2023-03-22T05:18:50.339Z,101576.00
2023-03-22T05:21:22.540Z,101565.81
2023-03-22T05:23:51.720Z,101553.13
2023-03-22T05:26:20.863Z,101574.34
2023-03-22T05:28:51.872Z,101572.81
2023-03-22T05:31:22.365Z,101566.13
2023-03-22T05:33:52.434Z,101533.81
2023-03-22T05:36:24.537Z,101560.47
2023-03-22T05:38:53.752Z,101552.91
2023-03-22T05:41:22.931Z,101538.22
2023-03-22T05:43:53.474Z,101551.69
2023-03-22T05:46:22.753Z,101508.81
2023-03-22T05:48:52.032Z,101550.41
2023-03-22T05:51:21.198Z,101522.41
2023-03-22T05:53:52.099Z,101553.28
2023-03-22T05:56:24.807Z,101542.91
2023-03-22T05:58:55.569Z,101495.78
2023-03-22T06:01:25.949Z,101532.63
2023-03-22T06:03:55.095Z,101472.19
2023-03-22T06:06:24.328Z,101534.78
2023-03-22T06:09:04.299Z,101509.34
2023-03-22T06:11:43.114Z,101485.75
2023-03-22T06:14:15.050Z,101541.28
2023-03-22T06:16:45.107Z,101537.09
2023-03-22T06:19:14.435Z,101526.06
2023-03-22T06:21:43.851Z,101535.84
2023-03-22T06:24:17.434Z,101536.03
2023-03-22T06:26:46.986Z,101452.06
2023-03-22T06:29:17.674Z,101523.31
2023-03-22T06:31:48.041Z,101525.97
2023-03-22T06:34:17.383Z,101501.69
2023-03-22T06:36:46.908Z,101481.66
2023-03-22T06:39:15.996Z,101489.78
2023-03-22T06:41:45.135Z,101480.13
2023-03-22T06:44:14.517Z,101496.91
2023-03-22T06:46:45.589Z,101502.56
2023-03-22T06:49:14.797Z,101504.28
2023-03-22T06:51:43.960Z,101506.16
2023-03-22T06:54:14.727Z,101493.16
2023-03-22T06:56:43.937Z,101500.34
2023-03-22T06:59:13.078Z,101496.94
2023-03-22T07:01:42.396Z,101498.69
2023-03-22T07:04:13.143Z,101489.66
2023-03-22T07:06:42.307Z,101469.78
2023-03-22T07:09:12.202Z,101480.50
2023-03-22T07:11:41.414Z,101492.09
2023-03-22T07:14:10.604Z,101412.47
2023-03-22T07:16:39.744Z,101476.66
2023-03-22T07:19:08.957Z,101479.47
2023-03-22T07:21:39.664Z,101444.47
2023-03-22T07:24:09.900Z,101444.53
2023-03-22T07:26:40.778Z,101470.16
2023-03-22T07:29:09.939Z,101462.28
2023-03-22T07:31:40.072Z,101472.09
2023-03-22T07:34:09.315Z,101478.22
2023-03-22T07:36:40.046Z,101460.91
2023-03-22T07:39:09.145Z,101464.56
2023-03-22T07:41:38.277Z,101459.47
2023-03-22T07:44:17.594Z,101442.03
2023-03-22T07:46:47.406Z,101450.94
2023-03-22T07:49:16.732Z,101458.97
2023-03-22T07:51:47.416Z,101452.13
2023-03-22T07:54:32.103Z,101447.72
2023-03-22T07:57:02.782Z,101437.16
2023-03-22T07:59:31.965Z,101446.00
2023-03-22T08:02:01.332Z,101445.16
2023-03-22T08:04:31.119Z,101438.28
2023-03-22T08:07:01.769Z,101374.38
2023-03-22T08:09:31.258Z,101429.75
2023-03-22T08:12:00.377Z,101431.59
2023-03-22T08:14:36.344Z,101412.34
2023-03-22T08:17:07.206Z,101414.16
2023-03-22T08:19:36.712Z,101427.97
2023-03-22T08:22:07.459Z,101419.22
2023-03-22T08:24:37.098Z,101417.41
2023-03-22T08:27:06.763Z,101355.06
2023-03-22T08:29:36.001Z,101393.50
2023-03-22T08:32:06.122Z,101418.88
2023-03-22T08:34:39.332Z,101342.59
2023-03-22T08:37:10.961Z,101410.59
2023-03-22T08:39:40.177Z,101407.09
2023-03-22T08:42:09.326Z,101402.81
2023-03-22T08:44:38.524Z,101396.59
2023-03-22T08:47:07.644Z,101382.84
2023-03-22T08:49:38.037Z,101393.38
2023-03-22T08:52:09.192Z,101377.63
2023-03-22T08:54:40.163Z,101388.19
2023-03-22T08:57:13.059Z,101390.06
2023-03-22T08:59:42.243Z,101369.16
2023-03-22T09:02:14.794Z,101389.34
2023-03-22T09:04:44.032Z,101350.13
2023-03-22T09:07:13.265Z,101376.38
2023-03-22T09:09:43.842Z,101230.47
2023-03-22T09:12:14.267Z,101371.97
